sensor_id;sensor_type;location;lat;lon;timestamp;pressure;altitude;pressure_sealevel;temperature;humidity
45253;BME280;63171;50.520;30.486;2023-02-19T00:00:31;98811.59;;;5.08;70.95
45253;BME280;63171;50.520;30.486;2023-02-19T00:01:22;98804.38;;;5.13;71.10
45253;BME280;63171;50.520;30.486;2023-02-19T00:02:14;98810.03;;;5.20;71.06
45253;BME280;63171;50.520;30.486;2023-02-19T00:03:03;98813.31;;;5.23;71.27
45253;BME280;63171;50.520;30.486;2023-02-19T00:03:56;98811.56;;;5.24;71.08
45253;BME280;63171;50.520;30.486;2023-02-19T00:04:46;98807.09;;;5.26;71.15
45253;BME280;63171;50.520;30.486;2023-02-19T00:05:38;98811.09;;;5.31;71.43
45253;BME280;63171;50.520;30.486;2023-02-19T00:06:29;98817.31;;;5.29;71.05
45253;BME280;63171;50.520;30.486;2023-02-19T00:07:19;98822.41;;;5.30;71.04
45253;BME280;63171;50.520;30.486;2023-02-19T00:08:09;98815.63;;;5.28;71.25
45253;BME280;63171;50.520;30.486;2023-02-19T00:09:00;98820.41;;;5.36;71.05
45253;BME280;63171;50.520;30.486;2023-02-19T00:09:50;98805.91;;;5.31;71.21
45253;BME280;63171;50.520;30.486;2023-02-19T00:10:40;98811.19;;;5.30;71.01
45253;BME280;63171;50.520;30.486;2023-02-19T00:11:33;98812.84;;;5.31;70.93
45253;BME280;63171;50.520;30.486;2023-02-19T00:12:23;98812.03;;;5.30;70.99
45253;BME280;63171;50.520;30.486;2023-02-19T00:13:14;98806.63;;;5.33;71.04
45253;BME280;63171;50.520;30.486;2023-02-19T00:14:04;98810.63;;;5.25;70.85
45253;BME280;63171;50.520;30.486;2023-02-19T00:14:55;98813.91;;;5.13;70.83
45253;BME280;63171;50.520;30.486;2023-02-19T00:15:45;98814.38;;;5.19;70.78
45253;BME280;63171;50.520;30.486;2023-02-19T00:16:38;98807.38;;;5.21;70.91
45253;BME280;63171;50.520;30.486;2023-02-19T00:17:29;98802.59;;;5.14;70.55
45253;BME280;63171;50.520;30.486;2023-02-19T00:18:20;98799.84;;;5.17;70.67
45253;BME280;63171;50.520;30.486;2023-02-19T00:19:12;98804.78;;;5.21;70.75
45253;BME280;63171;50.520;30.486;2023-02-19T00:20:03;98800.66;;;5.17;70.96
45253;BME280;63171;50.520;30.486;2023-02-19T00:20:55;98807.53;;;5.18;70.73
45253;BME280;63171;50.520;30.486;2023-02-19T00:21:46;98806.03;;;5.14;70.87
45253;BME280;63171;50.520;30.486;2023-02-19T00:22:36;98804.69;;;5.23;70.82
45253;BME280;63171;50.520;30.486;2023-02-19T00:23:28;98799.97;;;5.29;70.68
45253;BME280;63171;50.520;30.486;2023-02-19T00:24:18;98806.72;;;5.32;70.89
45253;BME280;63171;50.520;30.486;2023-02-19T00:25:09;98800.63;;;5.33;71.02
45253;BME280;63171;50.520;30.486;2023-02-19T00:26:01;98798.16;;;5.16;70.60
45253;BME280;63171;50.520;30.486;2023-02-19T00:26:51;98797.16;;;5.18;70.79
45253;BME280;63171;50.520;30.486;2023-02-19T00:27:41;98798.38;;;5.27;70.83
45253;BME280;63171;50.520;30.486;2023-02-19T00:28:33;98800.91;;;5.28;70.76
45253;BME280;63171;50.520;30.486;2023-02-19T00:29:22;98806.19;;;5.27;70.72
45253;BME280;63171;50.520;30.486;2023-02-19T00:30:14;98810.72;;;5.23;70.46
45253;BME280;63171;50.520;30.486;2023-02-19T00:31:05;98806.34;;;5.24;70.56
45253;BME280;63171;50.520;30.486;2023-02-19T00:31:55;98806.69;;;5.18;70.56
45253;BME280;63171;50.520;30.486;2023-02-19T00:32:49;98809.19;;;5.19;70.49
45253;BME280;63171;50.520;30.486;2023-02-19T00:33:40;98813.91;;;5.13;70.47
45253;BME280;63171;50.520;30.486;2023-02-19T00:34:30;98811.13;;;5.16;70.33
45253;BME280;63171;50.520;30.486;2023-02-19T00:35:21;98802.25;;;5.20;70.32
45253;BME280;63171;50.520;30.486;2023-02-19T00:36:13;98802.94;;;5.23;70.48
45253;BME280;63171;50.520;30.486;2023-02-19T00:37:03;98806.25;;;5.25;70.54
45253;BME280;63171;50.520;30.486;2023-02-19T00:37:54;98810.97;;;5.19;70.49
45253;BME280;63171;50.520;30.486;2023-02-19T00:38:44;98810.72;;;5.23;70.25
45253;BME280;63171;50.520;30.486;2023-02-19T00:39:35;98817.50;;;5.26;70.41
45253;BME280;63171;50.520;30.486;2023-02-19T00:40:25;98814.25;;;5.22;70.49
45253;BME280;63171;50.520;30.486;2023-02-19T00:41:17;98806.19;;;5.27;70.49
45253;BME280;63171;50.520;30.486;2023-02-19T00:42:07;98812.84;;;5.31;70.33
45253;BME280;63171;50.520;30.486;2023-02-19T00:42:58;98810.25;;;5.31;70.28
45253;BME280;63171;50.520;30.486;2023-02-19T00:43:50;98811.09;;;5.31;70.45
45253;BME280;63171;50.520;30.486;2023-02-19T00:44:43;98808.88;;;5.25;70.35
45253;BME280;63171;50.520;30.486;2023-02-19T00:45:34;98809.03;;;5.22;70.06
45253;BME280;63171;50.520;30.486;2023-02-19T00:46:27;98805.22;;;5.14;69.88
45253;BME280;63171;50.520;30.486;2023-02-19T00:47:17;98813.81;;;5.14;70.12
45253;BME280;63171;50.520;30.486;2023-02-19T00:48:07;98812.47;;;5.23;70.33
45253;BME280;63171;50.520;30.486;2023-02-19T00:48:58;98811.56;;;5.24;70.23
45253;BME280;63171;50.520;30.486;2023-02-19T00:49:49;98817.25;;;5.15;70.07
45253;BME280;63171;50.520;30.486;2023-02-19T00:50:38;98814.56;;;5.16;69.98
45253;BME280;63171;50.520;30.486;2023-02-19T00:51:32;98812.28;;;5.26;70.15
45253;BME280;63171;50.520;30.486;2023-02-19T00:52:23;98811.03;;;5.17;70.03
45253;BME280;63171;50.520;30.486;2023-02-19T00:53:13;98816.59;;;5.11;70.08
45253;BME280;63171;50.520;30.486;2023-02-19T00:54:04;98816.69;;;5.10;69.96
45253;BME280;63171;50.520;30.486;2023-02-19T00:54:55;98820.28;;;5.07;69.67
45253;BME280;63171;50.520;30.486;2023-02-19T00:55:45;98822.13;;;5.05;69.79
45253;BME280;63171;50.520;30.486;2023-02-19T00:56:36;98819.69;;;5.02;69.75
45253;BME280;63171;50.520;30.486;2023-02-19T00:57:26;98819.38;;;5.08;70.05
45253;BME280;63171;50.520;30.486;2023-02-19T00:58:17;98812.66;;;5.04;69.86
45253;BME280;63171;50.520;30.486;2023-02-19T00:59:07;98824.38;;;5.11;70.02
45253;BME280;63171;50.520;30.486;2023-02-19T00:59:58;98828.06;;;5.07;69.74
45253;BME280;63171;50.520;30.486;2023-02-19T01:02:59;98831.06;;;5.15;69.94
45253;BME280;63171;50.520;30.486;2023-02-19T01:03:50;98833.66;;;5.15;70.24
45253;BME280;63171;50.520;30.486;2023-02-19T01:04:39;98829.31;;;5.16;69.86
45253;BME280;63171;50.520;30.486;2023-02-19T01:05:30;98833.56;;;5.17;70.01
45253;BME280;63171;50.520;30.486;2023-02-19T01:06:20;98833.47;;;5.18;70.13
45253;BME280;63171;50.520;30.486;2023-02-19T01:07:12;98824.47;;;5.10;70.11
45253;BME280;63171;50.520;30.486;2023-02-19T01:08:02;98838.19;;;5.12;70.13
45253;BME280;63171;50.520;30.486;2023-02-19T01:08:53;98833.34;;;5.05;69.97
45253;BME280;63171;50.520;30.486;2023-02-19T01:09:43;98840.78;;;5.12;69.77
45253;BME280;63171;50.520;30.486;2023-02-19T01:10:34;98830.66;;;5.07;69.71
45253;BME280;63171;50.520;30.486;2023-02-19T01:11:23;98839.44;;;5.04;69.88
45253;BME280;63171;50.520;30.486;2023-02-19T01:12:15;98829.81;;;5.07;69.92
45253;BME280;63171;50.520;30.486;2023-02-19T01:13:05;98836.53;;;5.11;69.79
45253;BME280;63171;50.520;30.486;2023-02-19T01:13:56;98831.34;;;5.11;70.13
45253;BME280;63171;50.520;30.486;2023-02-19T01:14:46;98830.06;;;5.18;69.96
45253;BME280;63171;50.520;30.486;2023-02-19T01:15:37;98825.69;;;5.18;70.25
45253;BME280;63171;50.520;30.486;2023-02-19T01:16:27;98827.47;;;5.18;69.86
45253;BME280;63171;50.520;30.486;2023-02-19T01:17:19;98832.50;;;5.05;70.00
45253;BME280;63171;50.520;30.486;2023-02-19T01:18:09;98832.84;;;4.99;69.93
45253;BME280;63171;50.520;30.486;2023-02-19T01:19:00;98830.75;;;5.05;69.96
45253;BME280;63171;50.520;30.486;2023-02-19T01:19:50;98825.88;;;5.15;70.25
45253;BME280;63171;50.520;30.486;2023-02-19T01:20:43;98818.28;;;5.12;69.82
45253;BME280;63171;50.520;30.486;2023-02-19T01:21:33;98823.13;;;5.02;69.97
45253;BME280;63171;50.520;30.486;2023-02-19T01:22:25;98821.28;;;5.04;69.91
45253;BME280;63171;50.520;30.486;2023-02-19T01:23:15;98825.72;;;5.02;69.87
45253;BME280;63171;50.520;30.486;2023-02-19T01:24:05;98821.88;;;5.10;70.03
45253;BME280;63171;50.520;30.486;2023-02-19T01:24:56;98826.56;;;5.03;69.93
45253;BME280;63171;50.520;30.486;2023-02-19T01:25:45;98823.41;;;4.98;70.07
45253;BME280;63171;50.520;30.486;2023-02-19T01:26:36;98829.34;;;5.00;70.07
45253;BME280;63171;50.520;30.486;2023-02-19T01:27:26;98837.13;;;5.00;69.70
45253;BME280;63171;50.520;30.486;2023-02-19T01:28:16;98840.91;;;4.94;69.88
45253;BME280;63171;50.520;30.486;2023-02-19T01:29:06;98838.13;;;4.97;69.99
45253;BME280;63171;50.520;30.486;2023-02-19T01:29:56;98834.53;;;5.00;70.19
45253;BME280;63171;50.520;30.486;2023-02-19T01:30:46;98836.09;;;5.02;69.92
45253;BME280;63171;50.520;30.486;2023-02-19T01:31:38;98838.44;;;5.07;69.90
45253;BME280;63171;50.520;30.486;2023-02-19T01:32:29;98832.59;;;5.03;70.05
45253;BME280;63171;50.520;30.486;2023-02-19T01:33:19;98833.00;;;5.12;69.95
45253;BME280;63171;50.520;30.486;2023-02-19T01:34:10;98837.28;;;5.13;70.00
45253;BME280;63171;50.520;30.486;2023-02-19T01:35:02;98828.56;;;5.14;70.19
45253;BME280;63171;50.520;30.486;2023-02-19T01:35:51;98826.72;;;5.16;70.09
45253;BME280;63171;50.520;30.486;2023-02-19T01:36:42;98846.72;;;5.14;70.17
45253;BME280;63171;50.520;30.486;2023-02-19T01:37:33;98835.78;;;5.09;70.13
45253;BME280;63171;50.520;30.486;2023-02-19T01:38:24;98847.00;;;5.09;70.14
45253;BME280;63171;50.520;30.486;2023-02-19T01:39:14;98839.78;;;5.14;70.17
45253;BME280;63171;50.520;30.486;2023-02-19T01:40:06;98840.13;;;5.08;69.83
45253;BME280;63171;50.520;30.486;2023-02-19T01:40:56;98843.72;;;5.05;69.96
45253;BME280;63171;50.520;30.486;2023-02-19T01:41:47;98846.22;;;5.07;70.03
45253;BME280;63171;50.520;30.486;2023-02-19T01:42:41;98848.56;;;5.12;70.17
45253;BME280;63171;50.520;30.486;2023-02-19T01:43:33;98849.22;;;5.15;70.22
45253;BME280;63171;50.520;30.486;2023-02-19T01:45:51;98843.81;;;5.04;69.91
45253;BME280;63171;50.520;30.486;2023-02-19T01:46:42;98844.72;;;5.03;70.03
45253;BME280;63171;50.520;30.486;2023-02-19T01:47:35;98841.72;;;5.11;70.10
45253;BME280;63171;50.520;30.486;2023-02-19T01:48:27;98838.03;;;5.15;70.30
45253;BME280;63171;50.520;30.486;2023-02-19T01:49:22;98836.44;;;5.12;70.20
45253;BME280;63171;50.520;30.486;2023-02-19T01:50:14;98843.63;;;5.07;70.10
45253;BME280;63171;50.520;30.486;2023-02-19T01:51:08;98843.56;;;5.09;70.04
45253;BME280;63171;50.520;30.486;2023-02-19T01:52:02;98841.56;;;4.98;70.20
45253;BME280;63171;50.520;30.486;2023-02-19T01:52:57;98833.97;;;4.95;70.05
45253;BME280;63171;50.520;30.486;2023-02-19T01:53:51;98845.56;;;5.03;70.25
45253;BME280;63171;50.520;30.486;2023-02-19T01:54:44;98846.16;;;5.09;70.11
45253;BME280;63171;50.520;30.486;2023-02-19T01:55:35;98846.41;;;5.04;70.18
45253;BME280;63171;50.520;30.486;2023-02-19T01:56:27;98848.06;;;5.05;70.03
45253;BME280;63171;50.520;30.486;2023-02-19T01:57:21;98851.41;;;5.07;70.32
45253;BME280;63171;50.520;30.486;2023-02-19T01:58:13;98857.47;;;5.08;69.99
45253;BME280;63171;50.520;30.486;2023-02-19T01:59:04;98848.81;;;5.07;70.03
45253;BME280;63171;50.520;30.486;2023-02-19T02:00:01;98846.06;;;5.10;70.33
45253;BME280;63171;50.520;30.486;2023-02-19T02:01:03;98854.88;;;5.08;70.35
45253;BME280;63171;50.520;30.486;2023-02-19T02:01:55;98851.50;;;5.05;70.36
45253;BME280;63171;50.520;30.486;2023-02-19T02:02:49;98844.50;;;5.08;70.46
45253;BME280;63171;50.520;30.486;2023-02-19T02:03:43;98854.94;;;5.06;70.19
45253;BME280;63171;50.520;30.486;2023-02-19T02:04:35;98854.28;;;5.02;70.37
45253;BME280;63171;50.520;30.486;2023-02-19T02:05:41;98860.22;;;5.04;70.25
45253;BME280;63171;50.520;30.486;2023-02-19T02:06:37;98859.63;;;4.99;70.20
45253;BME280;63171;50.520;30.486;2023-02-19T02:07:28;98869.75;;;5.04;70.50
45253;BME280;63171;50.520;30.486;2023-02-19T02:08:38;98863.41;;;5.10;70.49
45253;BME280;63171;50.520;30.486;2023-02-19T02:09:47;98862.31;;;4.98;70.19
45253;BME280;63171;50.520;30.486;2023-02-19T02:10:56;98862.97;;;5.01;70.55
45253;BME280;63171;50.520;30.486;2023-02-19T02:11:48;98871.28;;;5.08;70.52
45253;BME280;63171;50.520;30.486;2023-02-19T02:12:38;98862.66;;;5.08;70.75
45253;BME280;63171;50.520;30.486;2023-02-19T02:13:29;98876.28;;;5.11;70.47
45253;BME280;63171;50.520;30.486;2023-02-19T02:14:23;98867.91;;;5.06;70.46
45253;BME280;63171;50.520;30.486;2023-02-19T02:15:15;98872.94;;;5.09;70.71
45253;BME280;63171;50.520;30.486;2023-02-19T02:16:15;98875.47;;;5.11;70.73
45253;BME280;63171;50.520;30.486;2023-02-19T02:17:14;98869.00;;;5.02;70.59
45253;BME280;63171;50.520;30.486;2023-02-19T02:18:15;98875.53;;;4.93;70.45
45253;BME280;63171;50.520;30.486;2023-02-19T02:19:22;98877.72;;;5.01;70.66
45253;BME280;63171;50.520;30.486;2023-02-19T02:20:30;98879.13;;;5.07;70.65
45253;BME280;63171;50.520;30.486;2023-02-19T02:21:40;98874.94;;;5.04;70.46
45253;BME280;63171;50.520;30.486;2023-02-19T02:22:36;98861.56;;;4.96;70.52
45253;BME280;63171;50.520;30.486;2023-02-19T02:23:43;98876.78;;;5.02;70.88
45253;BME280;63171;50.520;30.486;2023-02-19T02:24:59;98879.66;;;4.97;70.79
45253;BME280;63171;50.520;30.486;2023-02-19T02:26:15;98882.06;;;5.00;70.85
45253;BME280;63171;50.520;30.486;2023-02-19T02:27:16;98879.13;;;4.91;70.63
45253;BME280;63171;50.520;30.486;2023-02-19T02:28:27;98878.06;;;4.95;70.75
45253;BME280;63171;50.520;30.486;2023-02-19T02:30:49;98888.50;;;4.93;70.83
45253;BME280;63171;50.520;30.486;2023-02-19T02:31:43;98879.13;;;4.91;70.87
45253;BME280;63171;50.520;30.486;2023-02-19T02:32:42;98887.00;;;4.89;70.90
45253;BME280;63171;50.520;30.486;2023-02-19T02:33:46;98887.84;;;4.90;70.84
45253;BME280;63171;50.520;30.486;2023-02-19T02:34:44;98887.75;;;4.91;70.98
45253;BME280;63171;50.520;30.486;2023-02-19T02:35:44;98887.59;;;4.94;70.99
45253;BME280;63171;50.520;30.486;2023-02-19T02:36:40;98882.91;;;4.85;71.14
45253;BME280;63171;50.520;30.486;2023-02-19T02:37:34;98888.75;;;4.89;70.92
45253;BME280;63171;50.520;30.486;2023-02-19T02:38:27;98892.69;;;4.80;70.99
45253;BME280;63171;50.520;30.486;2023-02-19T02:39:20;98886.09;;;4.74;70.89
45253;BME280;63171;50.520;30.486;2023-02-19T02:40:13;98879.22;;;4.73;71.11
45253;BME280;63171;50.520;30.486;2023-02-19T02:41:04;98879.81;;;4.79;70.97
45253;BME280;63171;50.520;30.486;2023-02-19T02:41:56;98889.50;;;4.75;71.11
45253;BME280;63171;50.520;30.486;2023-02-19T02:43:11;98891.25;;;4.59;70.91
45253;BME280;63171;50.520;30.486;2023-02-19T02:44:02;98896.28;;;4.62;71.31
45253;BME280;63171;50.520;30.486;2023-02-19T02:44:52;98889.78;;;4.70;71.30
45253;BME280;63171;50.520;30.486;2023-02-19T02:46:05;98885.81;;;4.63;71.19
45253;BME280;63171;50.520;30.486;2023-02-19T02:46:58;98889.94;;;4.67;71.29
45253;BME280;63171;50.520;30.486;2023-02-19T02:47:51;98888.25;;;4.66;71.39
45253;BME280;63171;50.520;30.486;2023-02-19T02:48:44;98896.28;;;4.62;71.38
45253;BME280;63171;50.520;30.486;2023-02-19T02:49:38;98892.59;;;4.66;71.41
45253;BME280;63171;50.520;30.486;2023-02-19T02:50:49;98892.34;;;4.55;71.82
45253;BME280;63171;50.520;30.486;2023-02-19T02:51:44;98895.69;;;4.57;71.83
45253;BME280;63171;50.520;30.486;2023-02-19T02:52:43;98893.94;;;4.57;71.77
45253;BME280;63171;50.520;30.486;2023-02-19T02:53:56;98896.75;;;4.53;71.68
45253;BME280;63171;50.520;30.486;2023-02-19T02:55:07;98898.69;;;4.49;71.68
45253;BME280;63171;50.520;30.486;2023-02-19T02:55:59;98899.78;;;4.45;72.21
45253;BME280;63171;50.520;30.486;2023-02-19T02:56:51;98905.97;;;4.42;72.16
45253;BME280;63171;50.520;30.486;2023-02-19T02:57:44;98899.59;;;4.48;71.77
45253;BME280;63171;50.520;30.486;2023-02-19T02:58:34;98901.28;;;4.49;72.31
45253;BME280;63171;50.520;30.486;2023-02-19T02:59:30;98903.78;;;4.51;72.35
45253;BME280;63171;50.520;30.486;2023-02-19T03:00:23;98911.91;;;4.44;72.38
45253;BME280;63171;50.520;30.486;2023-02-19T03:01:20;98899.53;;;4.50;72.55
45253;BME280;63171;50.520;30.486;2023-02-19T03:02:30;98905.88;;;4.44;72.26
45253;BME280;63171;50.520;30.486;2023-02-19T03:03:23;98913.75;;;4.42;72.76
45253;BME280;63171;50.520;30.486;2023-02-19T03:04:20;98912.91;;;4.42;72.61
45253;BME280;63171;50.520;30.486;2023-02-19T03:05:16;98907.47;;;4.47;73.06
45253;BME280;63171;50.520;30.486;2023-02-19T03:06:29;98917.31;;;4.40;72.45
45253;BME280;63171;50.520;30.486;2023-02-19T03:07:19;98921.06;;;4.34;72.64
45253;BME280;63171;50.520;30.486;2023-02-19T03:08:13;98922.75;;;4.35;72.96
45253;BME280;63171;50.520;30.486;2023-02-19T03:09:08;98927.75;;;4.38;73.01
45253;BME280;63171;50.520;30.486;2023-02-19T03:10:02;98919.78;;;4.26;72.73
45253;BME280;63171;50.520;30.486;2023-02-19T03:10:57;98915.44;;;4.26;73.18
45253;BME280;63171;50.520;30.486;2023-02-19T03:12:13;98922.06;;;4.32;73.43
45253;BME280;63171;50.520;30.486;2023-02-19T03:13:26;98921.97;;;4.33;73.37
45253;BME280;63171;50.520;30.486;2023-02-19T03:14:38;98912.69;;;4.29;73.38
45253;BME280;63171;50.520;30.486;2023-02-19T03:15:51;98912.78;;;4.28;73.13
45253;BME280;63171;50.520;30.486;2023-02-19T03:17:08;98918.19;;;4.23;73.77
45253;BME280;63171;50.520;30.486;2023-02-19T03:18:18;98927.63;;;4.24;73.89
45253;BME280;63171;50.520;30.486;2023-02-19T03:19:31;98924.19;;;4.24;74.04
45253;BME280;63171;50.520;30.486;2023-02-19T03:20:24;98925.66;;;4.29;74.26
45253;BME280;63171;50.520;30.486;2023-02-19T03:21:16;98925.50;;;4.32;73.85
45253;BME280;63171;50.520;30.486;2023-02-19T03:22:15;98931.34;;;4.36;74.43
45253;BME280;63171;50.520;30.486;2023-02-19T03:23:07;98935.03;;;4.32;74.21
45253;BME280;63171;50.520;30.486;2023-02-19T03:23:59;98944.41;;;4.34;74.38
45253;BME280;63171;50.520;30.486;2023-02-19T03:25:11;98937.53;;;4.33;74.35
45253;BME280;63171;50.520;30.486;2023-02-19T03:26:21;98938.00;;;4.24;74.33
45253;BME280;63171;50.520;30.486;2023-02-19T03:27:16;98936.72;;;4.15;74.61
45253;BME280;63171;50.520;30.486;2023-02-19T03:28:13;98936.50;;;4.20;74.64
45253;BME280;63171;50.520;30.486;2023-02-19T03:29:07;98931.97;;;4.24;74.55
45253;BME280;63171;50.520;30.486;2023-02-19T03:30:15;98924.88;;;4.27;74.73
45253;BME280;63171;50.520;30.486;2023-02-19T03:31:08;98929.94;;;4.30;74.87
45253;BME280;63171;50.520;30.486;2023-02-19T03:32:03;98930.47;;;4.20;74.58
45253;BME280;63171;50.520;30.486;2023-02-19T03:32:57;98926.13;;;4.20;74.72
45253;BME280;63171;50.520;30.486;2023-02-19T03:33:53;98935.41;;;4.24;74.98
45253;BME280;63171;50.520;30.486;2023-02-19T03:34:47;98931.31;;;4.20;75.08
45253;BME280;63171;50.520;30.486;2023-02-19T03:35:45;98939.66;;;4.25;75.33
45253;BME280;63171;50.520;30.486;2023-02-19T03:36:41;98937.00;;;4.27;75.16
45253;BME280;63171;50.520;30.486;2023-02-19T03:37:37;98948.06;;;4.30;75.39
45253;BME280;63171;50.520;30.486;2023-02-19T03:38:37;98948.16;;;4.29;75.34
45253;BME280;63171;50.520;30.486;2023-02-19T03:39:28;98948.06;;;4.30;75.63
45253;BME280;63171;50.520;30.486;2023-02-19T03:40:21;98949.91;;;4.28;75.34
45253;BME280;63171;50.520;30.486;2023-02-19T03:41:22;98946.97;;;4.34;75.80
45253;BME280;63171;50.520;30.486;2023-02-19T03:42:29;98946.16;;;4.34;75.80
45253;BME280;63171;50.520;30.486;2023-02-19T03:43:29;98944.63;;;4.12;75.63
45253;BME280;63171;50.520;30.486;2023-02-19T03:44:29;98948.31;;;4.08;75.48
45253;BME280;63171;50.520;30.486;2023-02-19T03:45:32;98948.22;;;4.10;75.98
45253;BME280;63171;50.520;30.486;2023-02-19T03:46:28;98957.53;;;3.97;75.59
45253;BME280;63171;50.520;30.486;2023-02-19T03:47:25;98955.25;;;4.08;75.88
45253;BME280;63171;50.520;30.486;2023-02-19T03:48:24;98962.84;;;4.11;75.91
45253;BME280;63171;50.520;30.486;2023-02-19T03:49:22;98950.91;;;4.08;75.85
45253;BME280;63171;50.520;30.486;2023-02-19T03:50:40;98972.19;;;4.15;76.19
45253;BME280;63171;50.520;30.486;2023-02-19T03:51:38;98968.19;;;4.08;76.28
45253;BME280;63171;50.520;30.486;2023-02-19T03:52:37;98964.25;;;4.18;76.42
45253;BME280;63171;50.520;30.486;2023-02-19T03:53:32;98968.13;;;4.09;76.42
45253;BME280;63171;50.520;30.486;2023-02-19T03:54:31;98961.50;;;4.04;76.33
45253;BME280;63171;50.520;30.486;2023-02-19T03:55:26;98963.78;;;4.10;76.36
45253;BME280;63171;50.520;30.486;2023-02-19T03:56:26;98956.63;;;4.15;76.66
45253;BME280;63171;50.520;30.486;2023-02-19T03:57:21;98956.47;;;4.01;76.56
45253;BME280;63171;50.520;30.486;2023-02-19T03:58:16;98950.75;;;4.11;76.90
45253;BME280;63171;50.520;30.486;2023-02-19T03:59:11;98952.91;;;4.03;76.72
45253;BME280;63171;50.520;30.486;2023-02-19T04:00:08;98958.44;;;3.96;76.78
45253;BME280;63171;50.520;30.486;2023-02-19T04:01:04;98958.00;;;4.05;76.85
45253;BME280;63171;50.520;30.486;2023-02-19T04:01:59;98954.66;;;4.03;77.03
45253;BME280;63171;50.520;30.486;2023-02-19T04:02:55;98958.16;;;4.02;76.76
45253;BME280;63171;50.520;30.486;2023-02-19T04:03:51;98945.97;;;4.04;77.39
45253;BME280;63171;50.520;30.486;2023-02-19T04:04:48;98953.72;;;4.04;76.94
45253;BME280;63171;50.520;30.486;2023-02-19T04:05:43;98962.09;;;4.09;77.49
45253;BME280;63171;50.520;30.486;2023-02-19T04:06:35;98956.63;;;3.98;77.49
45253;BME280;63171;50.520;30.486;2023-02-19T04:07:29;98950.44;;;4.00;77.28
45253;BME280;63171;50.520;30.486;2023-02-19T04:08:22;98958.91;;;4.04;77.64
45253;BME280;63171;50.520;30.486;2023-02-19T04:09:21;98960.50;;;4.06;77.27
45253;BME280;63171;50.520;30.486;2023-02-19T04:10:18;98962.19;;;4.07;77.75
45253;BME280;63171;50.520;30.486;2023-02-19T04:11:15;98967.59;;;4.03;77.66
45253;BME280;63171;50.520;30.486;2023-02-19T04:12:08;98953.56;;;4.07;77.53
45253;BME280;63171;50.520;30.486;2023-02-19T04:13:04;98959.91;;;4.01;77.15
45253;BME280;63171;50.520;30.486;2023-02-19T04:14:00;98953.19;;;3.97;77.87
45253;BME280;63171;50.520;30.486;2023-02-19T04:14:57;98949.84;;;3.95;77.43
45253;BME280;63171;50.520;30.486;2023-02-19T04:15:50;98944.75;;;3.94;77.91
45253;BME280;63171;50.520;30.486;2023-02-19T04:16:46;98954.09;;;3.96;77.68
45253;BME280;63171;50.520;30.486;2023-02-19T04:17:41;98954.94;;;3.97;77.85
45253;BME280;63171;50.520;30.486;2023-02-19T04:18:35;98955.69;;;3.99;77.96
45253;BME280;63171;50.520;30.486;2023-02-19T04:19:29;98958.91;;;4.04;78.08
45253;BME280;63171;50.520;30.486;2023-02-19T04:20:23;98960.59;;;4.05;78.09
45253;BME280;63171;50.520;30.486;2023-02-19T04:21:16;98964.09;;;4.04;77.93
45253;BME280;63171;50.520;30.486;2023-02-19T04:22:09;98969.44;;;4.01;77.99
45253;BME280;63171;50.520;30.486;2023-02-19T04:23:00;98959.28;;;3.96;78.27
45253;BME280;63171;50.520;30.486;2023-02-19T04:23:52;98968.13;;;3.92;78.25
45253;BME280;63171;50.520;30.486;2023-02-19T04:24:45;98967.28;;;3.92;78.13
45253;BME280;63171;50.520;30.486;2023-02-19T04:25:38;98973.38;;;3.91;78.45
45253;BME280;63171;50.520;30.486;2023-02-19T04:26:31;98978.56;;;3.91;77.97
45253;BME280;63171;50.520;30.486;2023-02-19T04:27:22;98968.72;;;3.97;78.59
45253;BME280;63171;50.520;30.486;2023-02-19T04:28:13;98966.84;;;4.01;78.64
45253;BME280;63171;50.520;30.486;2023-02-19T04:29:04;98964.03;;;3.88;78.24
45253;BME280;63171;50.520;30.486;2023-02-19T04:29:55;98963.41;;;3.83;78.34
45253;BME280;63171;50.520;30.486;2023-02-19T04:30:45;98964.91;;;3.70;78.38
45253;BME280;63171;50.520;30.486;2023-02-19T04:31:35;98973.31;;;3.75;78.54
45253;BME280;63171;50.520;30.486;2023-02-19T04:32:27;98977.34;;;3.80;78.88
45253;BME280;63171;50.520;30.486;2023-02-19T04:33:16;98973.44;;;3.72;78.79
45253;BME280;63171;50.520;30.486;2023-02-19T04:34:07;98979.31;;;3.75;79.16
45253;BME280;63171;50.520;30.486;2023-02-19T04:34:59;98978.19;;;3.81;79.02
45253;BME280;63171;50.520;30.486;2023-02-19T04:35:49;98985.63;;;3.87;79.36
45253;BME280;63171;50.520;30.486;2023-02-19T04:36:39;98973.22;;;3.76;79.25
45253;BME280;63171;50.520;30.486;2023-02-19T04:37:30;98985.25;;;3.77;79.29
45253;BME280;63171;50.520;30.486;2023-02-19T04:38:21;98973.34;;;3.73;79.24
45253;BME280;63171;50.520;30.486;2023-02-19T04:39:11;98979.59;;;3.69;79.38
45253;BME280;63171;50.520;30.486;2023-02-19T04:40:02;98977.50;;;3.77;79.57
45253;BME280;63171;50.520;30.486;2023-02-19T04:40:52;98984.94;;;3.83;79.82
45253;BME280;63171;50.520;30.486;2023-02-19T04:41:42;98983.28;;;3.82;79.96
45253;BME280;63171;50.520;30.486;2023-02-19T04:42:32;98985.19;;;3.79;80.09
45253;BME280;63171;50.520;30.486;2023-02-19T04:43:23;98977.56;;;3.76;79.88
45253;BME280;63171;50.520;30.486;2023-02-19T04:44:12;98987.28;;;3.71;80.22
45253;BME280;63171;50.520;30.486;2023-02-19T04:45:04;98990.53;;;3.76;80.16
45253;BME280;63171;50.520;30.486;2023-02-19T04:45:53;98988.53;;;3.81;80.16
45253;BME280;63171;50.520;30.486;2023-02-19T04:46:44;98987.69;;;3.80;80.81
45253;BME280;63171;50.520;30.486;2023-02-19T04:47:34;98994.84;;;3.75;80.43
45253;BME280;63171;50.520;30.486;2023-02-19T04:48:24;98987.09;;;3.75;80.40
45253;BME280;63171;50.520;30.486;2023-02-19T04:49:14;98989.69;;;3.75;80.43
45253;BME280;63171;50.520;30.486;2023-02-19T04:50:07;98984.03;;;3.67;80.57
45253;BME280;63171;50.520;30.486;2023-02-19T04:50:56;98988.88;;;3.73;81.26
45253;BME280;63171;50.520;30.486;2023-02-19T04:51:47;98997.66;;;3.71;80.81
45253;BME280;63171;50.520;30.486;2023-02-19T04:52:37;98986.84;;;3.63;80.80
45253;BME280;63171;50.520;30.486;2023-02-19T04:53:28;98984.59;;;3.55;80.80